Time;durP1;ratioP1;P1;durP2;ratioP2;P2;SDS_P1;SDS_P2;PMS_P1;PMS_P2;Temp;Humidity;BMP_temperature;BMP_pressure;BME280_temperature;BME280_humidity;BME280_pressure;Samples;Min_cycle;Max_cycle;Signal;HPM_P1;HPM_P2
2022/09/16 00:00:51;;;;;;;4.73;0.97;;;10.50;99.90;9.80;98578;;;;583464;246;24156;-85
2022/09/16 00:03:21;;;;;;;3.07;0.90;;;10.50;99.90;9.80;98584;;;;584062;244;24096;-85
2022/09/16 00:05:55;;;;;;;1.87;0.97;;;10.40;99.90;9.70;98597;;;;570581;243;24098;-85
2022/09/16 00:08:20;;;;;;;2.80;1.00;;;10.40;99.90;9.70;98597;;;;573905;246;24158;-85
2022/09/16 00:10:53;;;;;;;4.93;1.13;;;10.30;99.90;9.70;98595;;;;584313;242;24068;-86
2022/09/16 00:13:19;;;;;;;3.60;1.10;;;10.30;99.90;9.60;98595;;;;574530;246;24073;-84
2022/09/16 00:15:51;;;;;;;10.80;1.30;;;10.30;99.90;9.60;98594;;;;574337;246;24087;-86
2022/09/16 00:18:18;;;;;;;2.37;0.90;;;10.20;99.90;9.50;98587;;;;573488;246;24087;-83
2022/09/16 00:20:48;;;;;;;1.23;0.70;;;10.20;99.90;9.50;98590;;;;572191;246;24055;-85
2022/09/16 00:23:21;;;;;;;6.30;1.13;;;10.10;99.90;9.50;98596;;;;574184;246;24072;-87
2022/09/16 00:25:58;;;;;;;3.60;1.40;;;10.10;99.90;9.40;98591;;;;574305;246;24080;-86
2022/09/16 00:28:27;;;;;;;3.83;1.00;;;10.10;99.90;9.40;98586;;;;583267;244;24101;-86
2022/09/16 00:31:02;;;;;;;1.33;1.13;;;10.10;99.90;9.40;98593;;;;574609;246;24112;-86
2022/09/16 00:33:32;;;;;;;1.90;0.60;;;10.00;99.90;9.40;98594;;;;574798;246;24083;-86
2022/09/16 00:36:09;;;;;;;2.67;0.70;;;10.00;99.90;9.30;98596;;;;574864;246;24125;-85
2022/09/16 00:38:36;;;;;;;5.50;1.10;;;10.00;99.90;9.30;98594;;;;573051;246;24096;-86
2022/09/16 00:41:08;;;;;;;4.13;0.70;;;9.90;99.90;9.30;98605;;;;575822;245;24170;-87
2022/09/16 00:43:54;;;;;;;6.57;1.73;;;9.90;99.90;9.30;98602;;;;571955;246;35116;-85
2022/09/16 00:46:26;;;;;;;0.80;0.70;;;9.90;99.90;9.30;98605;;;;575737;246;24110;-85
2022/09/16 00:49:01;;;;;;;2.37;0.77;;;9.90;99.90;9.30;98594;;;;565039;250;24082;-84
2022/09/16 00:51:29;;;;;;;5.20;0.83;;;9.90;99.90;9.30;98597;;;;574894;246;24102;-86
2022/09/16 00:53:59;;;;;;;1.80;0.73;;;9.90;99.90;9.30;98589;;;;575509;246;24078;-84
2022/09/16 00:56:29;;;;;;;3.57;1.37;;;10.00;99.90;9.30;98588;;;;576055;246;24062;-86
2022/09/16 00:59:03;;;;;;;4.47;1.00;;;10.00;99.90;9.30;98581;;;;575302;246;24090;-86
2022/09/16 01:01:32;;;;;;;3.90;0.80;;;10.00;99.90;9.40;98592;;;;572998;246;24087;-86
2022/09/16 01:04:13;;;;;;;4.33;0.70;;;10.00;99.90;9.40;98581;;;;583472;245;24163;-84
2022/09/16 01:06:41;;;;;;;3.37;1.07;;;10.00;99.90;9.30;98585;;;;574512;246;24083;-85
2022/09/16 01:09:12;;;;;;;3.27;0.90;;;9.90;99.90;9.30;98585;;;;574910;246;24074;-84
2022/09/16 01:11:42;;;;;;;2.00;0.57;;;10.00;99.90;9.30;98581;;;;583117;245;24072;-85
2022/09/16 01:17:14;;;;;;;4.37;0.97;;;9.90;99.90;9.30;98584;;;;575296;246;24168;-85
2022/09/16 01:20:15;;;;;;;5.13;1.03;;;10.00;99.90;9.30;98581;;;;571919;246;24084;-85
2022/09/16 01:22:52;;;;;;;3.57;1.43;;;9.90;99.90;9.30;98579;;;;572335;246;24171;-85
2022/09/16 01:25:54;;;;;;;5.63;0.77;;;9.90;99.90;9.20;98586;;;;575613;246;24114;-85
2022/09/16 01:28:43;;;;;;;3.10;1.07;;;9.90;99.90;9.20;98578;;;;573631;246;24090;-83
2022/09/16 01:31:45;;;;;;;3.40;1.10;;;9.90;99.90;9.20;98572;;;;575168;246;24125;-86
2022/09/16 01:34:43;;;;;;;3.77;0.90;;;9.80;99.90;9.20;98583;;;;575061;246;24121;-85
2022/09/16 01:37:28;;;;;;;3.77;0.90;;;9.80;99.90;9.10;98588;;;;571833;246;24183;-86
2022/09/16 01:40:32;;;;;;;5.62;1.20;;;9.80;99.90;9.10;98589;;;;565688;246;35053;-86
2022/09/16 01:43:24;;;;;;;6.37;1.50;;;9.80;99.90;9.10;98581;;;;575638;246;24099;-87
2022/09/16 01:45:58;;;;;;;6.77;1.23;;;9.70;99.90;9.10;98593;;;;569667;249;24055;-84
2022/09/16 01:48:56;;;;;;;6.43;2.00;;;9.70;99.90;9.10;98588;;;;551229;257;24171;-85
2022/09/16 01:51:54;;;;;;;2.23;0.80;;;9.80;99.90;9.10;98588;;;;560866;252;24099;-85
2022/09/16 01:54:47;;;;;;;8.00;1.20;;;9.70;99.90;9.00;98586;;;;561797;254;24183;-85
2022/09/16 01:57:21;;;;;;;4.37;1.10;;;9.70;99.90;9.00;98583;;;;550338;257;24171;-84
2022/09/16 02:00:05;;;;;;;2.53;0.87;;;9.60;99.90;8.90;98591;;;;550048;257;24192;-83
2022/09/16 02:03:02;;;;;;;8.27;1.30;;;9.60;99.90;8.90;98597;;;;551609;257;24154;-84
2022/09/16 02:05:48;;;;;;;6.70;1.13;;;9.60;99.90;8.90;98585;;;;552203;257;24159;-85
2022/09/16 02:08:17;;;;;;;9.57;1.40;;;9.50;99.90;8.90;98584;;;;554025;248;24098;-83
2022/09/16 02:10:47;;;;;;;2.47;0.60;;;9.50;99.90;8.90;98582;;;;570019;248;24099;-84
2022/09/16 02:13:18;;;;;;;7.50;1.00;;;9.50;99.90;8.90;98578;;;;570661;248;24084;-83
2022/09/16 02:15:49;;;;;;;6.63;1.03;;;9.50;99.90;8.80;98582;;;;571001;248;24126;-85
2022/09/16 02:18:25;;;;;;;3.47;1.07;;;9.50;99.90;8.80;98583;;;;571010;248;24074;-85
2022/09/16 02:20:52;;;;;;;2.93;1.00;;;9.40;99.90;8.80;98580;;;;568732;248;24126;-85
2022/09/16 02:23:21;;;;;;;2.20;0.67;;;9.40;99.90;8.70;98575;;;;568708;248;24059;-86
2022/09/16 02:25:50;;;;;;;4.90;1.13;;;9.40;99.90;8.70;98573;;;;570816;248;24109;-88
2022/09/16 02:28:25;;;;;;;3.33;0.90;;;9.40;99.90;8.70;98574;;;;570630;248;24074;-86
2022/09/16 02:30:57;;;;;;;2.23;0.93;;;9.40;99.90;8.70;98575;;;;570567;248;24097;-87
2022/09/16 02:33:25;;;;;;;3.00;0.93;;;9.40;99.90;8.70;98569;;;;570508;248;24072;-85
2022/09/16 02:35:53;;;;;;;6.17;0.77;;;9.40;99.90;8.70;98573;;;;570810;246;24131;-88
2022/09/16 02:38:21;;;;;;;4.90;0.87;;;9.40;99.90;8.70;98572;;;;569103;248;24139;-86
2022/09/16 02:40:58;;;;;;;4.00;0.90;;;9.30;99.90;8.60;98573;;;;568849;248;24068;-85
2022/09/16 02:43:25;;;;;;;2.97;0.70;;;9.30;99.90;8.60;98573;;;;570196;248;24053;-86
2022/09/16 02:45:59;;;;;;;2.07;1.27;;;9.20;99.90;8.60;98565;;;;568418;248;24070;-84
2022/09/16 02:48:55;;;;;;;7.60;1.20;;;9.20;99.90;8.60;98563;;;;569995;248;24085;-86
2022/09/16 02:51:37;;;;;;;6.80;1.50;;;9.20;99.90;8.60;98569;;;;572597;248;24086;-86
2022/09/16 02:54:24;;;;;;;4.73;0.93;;;9.20;99.90;8.60;98564;;;;572441;248;24074;-85
2022/09/16 02:56:51;;;;;;;4.13;0.90;;;9.20;99.90;8.50;98572;;;;570000;248;24114;-86
2022/09/16 02:59:19;;;;;;;3.73;1.10;;;9.20;99.90;8.60;98568;;;;570042;244;24067;-85
2022/09/16 03:01:48;;;;;;;9.63;1.37;;;9.20;99.90;8.50;98569;;;;572437;248;24075;-84
2022/09/16 03:04:16;;;;;;;2.13;0.90;;;9.20;99.90;8.50;98567;;;;572243;247;24061;-86
2022/09/16 03:06:45;;;;;;;4.27;1.40;;;9.20;99.90;8.50;98570;;;;571301;245;24086;-87
2022/09/16 03:09:16;;;;;;;2.60;1.33;;;9.20;99.90;8.50;98554;;;;573469;248;24058;-86
2022/09/16 03:12:19;;;;;;;4.27;0.87;;;9.10;99.90;8.50;98566;;;;571104;248;24062;-86
2022/09/16 03:15:20;;;;;;;1.93;0.90;;;9.10;99.90;8.40;98575;;;;570341;248;24122;-85
2022/09/16 03:18:10;;;;;;;6.90;1.75;;;9.10;99.90;8.40;98566;;;;567958;248;35093;-85
2022/09/16 03:20:43;;;;;;;5.80;1.60;;;9.10;99.90;8.40;98580;;;;564975;249;24202;-87
2022/09/16 03:23:34;;;;;;;9.97;1.57;;;9.10;99.90;8.40;98580;;;;567947;249;24157;-86
2022/09/16 03:26:23;;;;;;;6.43;0.83;;;9.10;99.90;8.30;98584;;;;568644;249;26368;-87
2022/09/16 03:29:18;;;;;;;5.03;1.70;;;9.00;99.90;8.30;98576;;;;572292;248;35035;-85
2022/09/16 03:32:32;;;;;;;4.37;1.17;;;9.00;99.90;8.30;98576;;;;568377;248;24071;-86
2022/09/16 03:35:30;;;;;;;7.97;0.90;;;9.00;99.90;8.40;98577;;;;569195;248;24063;-86
2022/09/16 03:38:02;;;;;;;3.67;1.17;;;9.00;99.90;8.30;98585;;;;574689;248;24162;-89
2022/09/16 03:40:30;;;;;;;5.97;1.00;;;9.00;99.90;8.30;98581;;;;568378;248;24067;-87
2022/09/16 03:42:56;;;;;;;2.53;1.37;;;9.00;99.90;8.30;98581;;;;570009;248;24068;-87
2022/09/16 03:45:27;;;;;;;2.57;1.20;;;9.00;99.90;8.30;98585;;;;570617;248;24076;-89
2022/09/16 03:47:54;;;;;;;6.30;1.20;;;9.00;99.90;8.30;98591;;;;579346;246;24065;-86
2022/09/16 03:50:23;;;;;;;9.13;1.13;;;8.90;99.90;8.30;98582;;;;572650;248;24151;-86
2022/09/16 03:52:51;;;;;;;5.13;1.57;;;8.90;99.90;8.30;98581;;;;572652;248;24068;-86
2022/09/16 03:55:22;;;;;;;4.77;1.03;;;9.00;99.90;8.30;98585;;;;572707;248;24060;-89
2022/09/16 03:57:50;;;;;;;2.13;1.10;;;9.00;99.90;8.30;98579;;;;573047;248;24063;-92
2022/09/16 04:00:18;;;;;;;2.13;1.40;;;9.00;99.90;8.30;98590;;;;570679;245;24078;-89
2022/09/16 04:02:47;;;;;;;7.20;1.60;;;9.00;99.90;8.40;98579;;;;572597;248;25132;-87
2022/09/16 04:05:15;;;;;;;2.77;1.17;;;9.00;99.90;8.40;98589;;;;572587;248;24054;-87
2022/09/16 04:07:44;;;;;;;6.70;1.57;;;9.10;99.90;8.40;98589;;;;572622;248;26276;-89
2022/09/16 04:10:12;;;;;;;8.07;1.57;;;9.00;99.90;8.40;98595;;;;572890;248;24068;-88
2022/09/16 04:12:40;;;;;;;4.33;0.90;;;9.10;99.90;8.40;98593;;;;569536;248;24095;-88
2022/09/16 04:15:12;;;;;;;4.03;1.00;;;9.10;99.90;8.40;98588;;;;573384;248;24070;-92
2022/09/16 04:17:36;;;;;;;3.30;1.13;;;9.10;99.90;8.50;98602;;;;571988;247;24092;-91
2022/09/16 04:20:06;;;;;;;4.00;1.20;;;9.10;99.90;8.50;98588;;;;574096;247;24104;-91
2022/09/16 04:22:31;;;;;;;4.00;1.03;;;9.20;99.90;8.50;98601;;;;571197;248;24065;-90
2022/09/16 04:25:00;;;;;;;2.93;0.97;;;9.20;99.90;8.50;98612;;;;574247;248;24058;-86
2022/09/16 04:27:28;;;;;;;5.10;1.27;;;9.20;99.90;8.60;98597;;;;573602;248;24085;-84
2022/09/16 04:29:57;;;;;;;3.10;0.83;;;9.30;99.90;8.70;98613;;;;573008;248;25121;-85
2022/09/16 04:32:25;;;;;;;4.67;1.20;;;9.30;99.90;8.80;98608;;;;573633;248;24072;-87
2022/09/16 04:34:54;;;;;;;2.10;1.10;;;9.50;99.90;8.90;98601;;;;570668;248;24067;-87
2022/09/16 04:37:22;;;;;;;2.90;1.50;;;9.50;99.90;9.00;98597;;;;579337;245;24091;-86
2022/09/16 04:39:50;;;;;;;2.33;0.93;;;9.70;99.90;9.20;98612;;;;572547;248;24055;-86
2022/09/16 04:42:18;;;;;;;3.13;1.57;;;9.80;99.90;9.30;98609;;;;578976;245;24096;-85
2022/09/16 04:44:47;;;;;;;8.37;1.47;;;10.00;99.90;9.40;98600;;;;572709;248;24081;-86
2022/09/16 04:47:18;;;;;;;4.40;1.30;;;10.00;99.90;9.50;98597;;;;573336;248;24079;-83
2022/09/16 04:49:42;;;;;;;7.17;1.83;;;10.20;99.90;9.60;98598;;;;572669;248;24194;-84
2022/09/16 04:52:10;;;;;;;5.37;1.50;;;10.30;99.90;9.70;98599;;;;579390;247;24096;-84
2022/09/16 04:54:39;;;;;;;5.50;1.30;;;10.40;99.90;9.80;98600;;;;572708;248;24061;-89
2022/09/16 04:57:07;;;;;;;2.03;1.13;;;10.40;99.90;9.80;98605;;;;572779;248;24108;-89
2022/09/16 04:59:35;;;;;;;3.43;1.53;;;10.50;99.90;9.90;98604;;;;572880;248;24067;-90
2022/09/16 05:02:05;;;;;;;5.70;1.30;;;10.50;99.90;9.90;98602;;;;569127;248;24112;-86
2022/09/16 05:04:33;;;;;;;3.33;1.10;;;10.60;99.90;10.00;98606;;;;572643;248;24060;-87
2022/09/16 05:07:00;;;;;;;2.03;0.97;;;10.70;99.90;10.00;98596;;;;572271;248;24081;-83
2022/09/16 05:09:28;;;;;;;2.57;1.27;;;10.60;99.90;10.00;98593;;;;578888;246;24058;-87
2022/09/16 05:11:56;;;;;;;1.83;0.93;;;10.60;99.90;10.00;98598;;;;570563;248;24111;-85
2022/09/16 05:14:24;;;;;;;6.70;1.27;;;10.60;99.90;10.00;98603;;;;569978;244;24096;-87
2022/09/16 05:16:55;;;;;;;4.37;1.53;;;10.70;99.90;10.10;98590;;;;572967;248;24068;-87
2022/09/16 05:19:23;;;;;;;3.50;1.23;;;10.70;99.90;10.10;98594;;;;573671;247;24078;-84
2022/09/16 05:21:51;;;;;;;4.97;1.53;;;10.70;99.90;10.10;98597;;;;573680;244;24031;-83
2022/09/16 05:24:19;;;;;;;2.60;1.30;;;10.70;99.90;10.00;98590;;;;573181;244;24141;-87
2022/09/16 05:26:46;;;;;;;3.70;1.40;;;10.70;99.90;10.00;98579;;;;579720;246;24129;-86
2022/09/16 05:29:16;;;;;;;8.97;1.30;;;10.60;99.90;9.90;98585;;;;574118;247;24081;-88
2022/09/16 05:31:48;;;;;;;7.27;2.43;;;10.60;99.90;9.90;98585;;;;570925;247;24049;-85
2022/09/16 05:34:27;;;;;;;4.73;1.00;;;10.60;99.90;10.10;98584;;;;574026;248;24090;-86
2022/09/16 05:36:52;;;;;;;4.40;1.23;;;10.70;99.90;10.40;98582;;;;570128;248;24075;-86
2022/09/16 05:39:19;;;;;;;5.90;1.50;;;10.90;99.90;10.50;98577;;;;571122;248;24100;-87
2022/09/16 05:41:49;;;;;;;6.33;1.33;;;11.00;99.90;11.30;98582;;;;572713;248;24063;-86
2022/09/16 05:44:20;;;;;;;3.70;1.37;;;11.60;99.90;13.20;98583;;;;568994;248;24063;-85
2022/09/16 05:46:45;;;;;;;5.33;1.50;;;15.00;99.90;15.10;98588;;;;569549;248;24094;-85
2022/09/16 05:49:19;;;;;;;3.13;1.20;;;15.00;99.90;17.00;98583;;;;578850;245;24051;-83
2022/09/16 05:51:41;;;;;;;3.50;0.93;;;16.90;99.90;18.50;98591;;;;571705;248;24062;-84
2022/09/16 05:54:09;;;;;;;3.90;1.60;;;18.50;99.90;19.80;98599;;;;572522;248;24060;-86
2022/09/16 05:56:37;;;;;;;10.23;1.60;;;20.00;99.90;20.90;98599;;;;572195;248;24040;-86
2022/09/16 05:59:09;;;;;;;3.77;1.30;;;21.10;99.90;21.80;98606;;;;569867;245;24126;-85
2022/09/16 06:01:36;;;;;;;3.13;1.40;;;22.00;98.50;22.80;98589;;;;579472;248;23143;-84
2022/09/16 06:04:01;;;;;;;4.30;1.23;;;23.00;94.70;23.70;98600;;;;569784;248;24052;-84
2022/09/16 06:06:40;;;;;;;2.70;1.53;;;23.90;91.10;24.40;98586;;;;570033;248;24045;-86
2022/09/16 06:09:08;;;;;;;3.47;1.20;;;24.70;84.70;25.00;98584;;;;569895;248;24080;-85
2022/09/16 06:11:38;;;;;;;5.73;1.33;;;25.40;79.40;25.50;98594;;;;568025;248;24078;-84
2022/09/16 06:14:06;;;;;;;5.50;1.13;;;25.80;74.90;25.60;98594;;;;578722;246;23092;-85
2022/09/16 06:16:35;;;;;;;4.93;1.20;;;26.30;69.30;25.70;98586;;;;572288;248;24038;-85
2022/09/16 06:19:08;;;;;;;10.60;2.30;;;26.20;69.20;26.20;98588;;;;572246;248;23081;-84
2022/09/16 06:21:32;;;;;;;4.73;1.63;;;26.60;67.10;26.50;98585;;;;578080;248;23080;-86
2022/09/16 06:24:00;;;;;;;7.30;1.57;;;26.90;65.50;26.20;98588;;;;578344;246;23087;-84
2022/09/16 06:26:27;;;;;;;6.07;1.77;;;26.90;63.70;25.80;98597;;;;572079;248;23133;-85
2022/09/16 06:28:55;;;;;;;7.53;1.90;;;26.50;63.90;26.10;98592;;;;572160;248;23114;-84
2022/09/16 06:31:23;;;;;;;3.43;1.33;;;26.50;64.30;27.00;98599;;;;571966;248;24119;-84
2022/09/16 06:33:55;;;;;;;10.37;1.63;;;27.90;61.00;27.60;98602;;;;568229;248;23084;-86
2022/09/16 06:36:20;;;;;;;2.77;1.70;;;27.80;61.00;27.00;98590;;;;569274;248;23100;-85
2022/09/16 06:38:51;;;;;;;3.43;1.37;;;27.60;59.90;26.50;98592;;;;570051;245;24114;-85
2022/09/16 06:41:16;;;;;;;6.53;1.92;;;27.20;59.80;25.40;98596;;;;575796;247;35149;-87
2022/09/16 06:43:44;;;;;;;5.77;1.70;;;26.30;60.40;24.40;98600;;;;569936;248;24065;-89
2022/09/16 06:46:17;;;;;;;6.93;1.80;;;25.40;62.50;23.70;98591;;;;571257;248;24058;-88
2022/09/16 06:48:52;;;;;;;4.27;1.50;;;24.50;64.50;23.50;98582;;;;570784;248;24099;-89
2022/09/16 06:51:20;;;;;;;5.47;1.27;;;24.10;66.00;22.80;98585;;;;569722;248;23101;-88
2022/09/16 06:53:47;;;;;;;5.77;1.60;;;23.40;67.00;22.10;98585;;;;569122;248;24085;-85
2022/09/16 06:56:20;;;;;;;5.63;1.53;;;22.70;69.40;21.80;98586;;;;572831;248;24068;-89
2022/09/16 06:58:46;;;;;;;3.73;1.10;;;22.30;70.30;21.10;98593;;;;578459;247;23095;-89
2022/09/16 07:01:14;;;;;;;9.17;1.50;;;21.80;72.30;20.00;98595;;;;570367;248;24064;-84
2022/09/16 07:03:39;;;;;;;5.47;1.40;;;20.90;73.00;19.20;98591;;;;569646;248;24075;-85
2022/09/16 07:06:08;;;;;;;2.60;1.00;;;19.30;78.30;18.60;98596;;;;568811;248;24051;-85
2022/09/16 07:08:38;;;;;;;12.80;1.20;;;18.80;81.40;18.10;98596;;;;569943;248;24096;-82
2022/09/16 07:11:15;;;;;;;4.00;1.50;;;18.70;80.50;17.80;98592;;;;570264;248;24147;-84
2022/09/16 07:13:45;;;;;;;6.73;1.53;;;18.40;82.80;18.80;98595;;;;570281;248;24063;-84
2022/09/16 07:16:10;;;;;;;1.07;0.83;;;18.80;84.40;19.50;98590;;;;570396;248;24069;-85
2022/09/16 07:18:40;;;;;;;7.17;1.60;;;19.60;81.20;19.30;98586;;;;568773;248;24091;-84
2022/09/16 07:21:10;;;;;;;5.13;1.23;;;19.60;80.80;19.40;98595;;;;578809;246;24073;-84
2022/09/16 07:23:41;;;;;;;5.33;1.20;;;19.70;82.10;19.90;98589;;;;570168;248;24056;-84
2022/09/16 07:26:06;;;;;;;5.03;1.43;;;20.10;81.00;20.80;98588;;;;578522;248;24130;-84
2022/09/16 07:28:34;;;;;;;8.60;1.17;;;20.90;79.50;22.10;98596;;;;569888;248;24083;-85
2022/09/16 07:31:05;;;;;;;3.00;1.57;;;22.00;77.40;24.20;98589;;;;569790;248;23104;-84
2022/09/16 07:33:33;;;;;;;6.07;1.60;;;23.80;72.40;26.40;98590;;;;569914;248;24059;-85
2022/09/16 07:36:03;;;;;;;4.47;1.13;;;26.00;67.00;28.70;98594;;;;569835;248;23076;-84
2022/09/16 07:38:31;;;;;;;7.90;1.70;;;28.40;60.80;30.20;98604;;;;567574;248;23066;-86
2022/09/16 07:40:56;;;;;;;3.50;1.30;;;30.20;56.60;30.50;98603;;;;568099;248;23124;-88
2022/09/16 07:43:24;;;;;;;8.97;1.83;;;31.00;54.10;29.30;98605;;;;570147;246;23066;-89
2022/09/16 07:45:55;;;;;;;28.23;2.40;;;30.30;53.60;26.90;98604;;;;572052;248;23083;-89
2022/09/16 07:48:24;;;;;;;9.70;1.50;;;27.00;57.50;25.50;98618;;;;567709;243;24107;-88
2022/09/16 07:50:58;;;;;;;2.90;1.87;;;26.90;56.90;24.40;98611;;;;572666;247;24092;-88
2022/09/16 07:53:26;;;;;;;8.50;1.33;;;25.80;59.00;23.30;98599;;;;569725;247;24198;-87
2022/09/16 07:55:53;;;;;;;9.33;1.33;;;24.60;61.60;22.40;98620;;;;570518;248;24046;-84
2022/09/16 07:58:21;;;;;;;5.37;1.67;;;23.50;64.30;21.70;98607;;;;561730;249;24192;-75
2022/09/16 08:00:49;;;;;;;21.70;1.50;;;22.70;66.90;21.00;98616;;;;552796;255;24128;-75
2022/09/16 08:03:18;;;;;;;4.07;1.37;;;21.10;71.30;20.20;98605;;;;561390;252;23182;-75
2022/09/16 08:05:47;;;;;;;7.80;1.40;;;20.60;74.50;19.80;98614;;;;561875;255;24166;-76
2022/09/16 08:08:18;;;;;;;6.27;1.40;;;20.50;73.70;19.30;98604;;;;553610;255;24152;-75
2022/09/16 08:10:42;;;;;;;7.37;1.50;;;20.00;75.50;18.80;98622;;;;551937;255;24176;-75
2022/09/16 08:13:10;;;;;;;4.10;1.53;;;19.50;77.30;18.50;98611;;;;553409;255;24119;-77
2022/09/16 08:15:42;;;;;;;5.73;1.33;;;18.80;83.10;18.30;98623;;;;553915;255;24229;-76
2022/09/16 08:18:10;;;;;;;3.57;1.17;;;18.80;83.10;18.10;98627;;;;553634;255;24225;-75
2022/09/16 08:20:38;;;;;;;5.17;1.33;;;18.70;84.90;17.80;98623;;;;553298;255;24186;-75
2022/09/16 08:23:06;;;;;;;6.40;1.50;;;18.20;89.30;17.70;98626;;;;552947;255;24180;-75
2022/09/16 08:25:35;;;;;;;5.07;1.40;;;18.20;89.30;17.80;98632;;;;553311;255;24131;-75
2022/09/16 08:28:07;;;;;;;5.67;1.37;;;18.30;89.10;18.20;98634;;;;560964;255;24164;-75
2022/09/16 08:30:31;;;;;;;7.30;1.83;;;18.50;87.30;19.70;98628;;;;552447;255;24157;-75
2022/09/16 08:33:01;;;;;;;3.47;1.23;;;22.40;79.60;22.80;98626;;;;552763;255;24145;-75
2022/09/16 08:35:29;;;;;;;3.83;1.60;;;22.40;79.50;25.70;98620;;;;552721;251;24179;-75
2022/09/16 08:37:57;;;;;;;13.37;1.70;;;25.50;69.20;27.40;98634;;;;552970;255;24163;-75
2022/09/16 08:40:25;;;;;;;6.30;1.63;;;27.60;62.20;27.60;98621;;;;552757;255;24136;-76
2022/09/16 08:43:18;;;;;;;10.60;1.13;;;27.90;57.30;26.60;98617;;;;558686;255;23166;-75
2022/09/16 08:45:51;;;;;;;4.77;1.40;;;27.80;57.20;26.30;98617;;;;551063;255;23165;-76
2022/09/16 08:48:52;;;;;;;9.77;1.50;;;27.30;57.70;26.10;98628;;;;560724;253;23150;-76
2022/09/16 08:51:20;;;;;;;8.47;1.77;;;27.00;58.20;24.60;98624;;;;561084;253;23171;-75
2022/09/16 08:54:01;;;;;;;2.57;1.17;;;24.80;60.60;23.40;98611;;;;560915;253;24168;-75
2022/09/16 08:56:30;;;;;;;5.53;1.17;;;24.70;60.60;22.60;98628;;;;552871;255;24138;-76
2022/09/16 08:58:59;;;;;;;7.50;1.50;;;23.80;63.50;21.90;98623;;;;561569;253;24166;-76
2022/09/16 09:01:51;;;;;;;5.57;1.70;;;22.90;64.90;21.50;98622;;;;561765;251;24137;-75
2022/09/16 09:04:19;;;;;;;4.47;1.20;;;22.30;66.80;21.30;98628;;;;547700;255;24134;-74
2022/09/16 09:07:15;;;;;;;1.57;0.73;;;21.90;68.40;21.20;98617;;;;561881;255;23213;-75
2022/09/16 09:10:01;;;;;;;4.77;1.50;;;21.80;69.20;20.90;98629;;;;553855;250;23177;-78
2022/09/16 09:12:59;;;;;;;3.80;1.23;;;21.50;69.70;20.90;98634;;;;561666;251;24287;-77
2022/09/16 09:15:45;;;;;;;3.60;1.40;;;21.50;71.20;20.50;98641;;;;561781;255;23254;-75
2022/09/16 09:18:54;;;;;;;6.00;1.27;;;21.20;71.20;19.90;98625;;;;561030;253;24140;-76
2022/09/16 09:21:34;;;;;;;4.53;1.50;;;20.70;72.30;19.30;98640;;;;553545;255;35523;-75
2022/09/16 09:24:13;;;;;;;7.17;1.53;;;20.10;74.40;19.10;98638;;;;551772;255;24140;-76
2022/09/16 09:26:46;;;;;;;17.57;1.73;;;19.80;75.80;18.70;98631;;;;553344;255;24207;-76
2022/09/16 09:29:34;;;;;;;5.23;0.90;;;19.40;76.50;18.30;98630;;;;553007;255;24226;-75
2022/09/16 09:32:42;;;;;;;2.60;1.20;;;19.00;77.50;18.10;98637;;;;553421;255;24151;-76
2022/09/16 09:35:48;;;;;;;9.17;1.23;;;18.70;79.10;18.20;98640;;;;561224;251;24141;-75
2022/09/16 09:38:55;;;;;;;2.47;1.07;;;18.70;80.50;18.90;98631;;;;561644;253;24152;-76
2022/09/16 09:41:51;;;;;;;7.07;1.60;;;19.20;80.20;20.70;98634;;;;552155;255;24142;-75
2022/09/16 09:44:46;;;;;;;3.13;1.00;;;20.80;76.40;23.40;98624;;;;552940;252;24242;-75
2022/09/16 09:47:17;;;;;;;2.50;1.20;;;23.40;70.50;25.70;98635;;;;561083;255;24132;-76
2022/09/16 09:49:57;;;;;;;24.97;2.70;;;25.90;63.80;26.60;98635;;;;552233;255;24136;-76
2022/09/16 09:52:38;;;;;;;20.83;1.97;;;27.30;58.90;26.00;98645;;;;559746;253;24174;-76
2022/09/16 09:55:19;;;;;;;10.17;1.30;;;27.30;57.30;25.60;98633;;;;560344;255;24205;-76
2022/09/16 09:58:05;;;;;;;4.40;1.30;;;26.90;57.80;24.30;98650;;;;559315;253;23182;-76
2022/09/16 10:00:33;;;;;;;6.93;1.50;;;25.90;57.90;22.90;98656;;;;560456;251;24176;-74
2022/09/16 10:03:15;;;;;;;13.13;1.77;;;24.50;59.70;21.60;98637;;;;552815;255;24148;-75
2022/09/16 10:05:40;;;;;;;9.77;1.20;;;23.20;62.90;21.00;98650;;;;553031;255;24223;-76
2022/09/16 10:08:20;;;;;;;21.27;2.80;;;22.20;66.00;20.60;98644;;;;553011;255;24191;-75
2022/09/16 10:10:58;;;;;;;22.53;2.07;;;21.60;67.60;20.30;98641;;;;553343;255;24179;-76
2022/09/16 10:13:31;;;;;;;64.03;4.57;;;20.70;69.90;19.90;98641;;;;560556;253;24145;-75
2022/09/16 10:16:14;;;;;;;17.00;1.90;;;20.60;69.80;19.70;98637;;;;562781;254;24157;-74
2022/09/16 10:18:43;;;;;;;16.83;1.50;;;20.30;72.60;19.80;98656;;;;560106;252;24210;-76
2022/09/16 10:21:11;;;;;;;23.27;2.30;;;20.30;72.60;19.70;98640;;;;553560;255;24162;-74
2022/09/16 10:23:40;;;;;;;21.10;1.60;;;20.30;72.20;19.60;98635;;;;560915;251;24193;-76
2022/09/16 10:26:26;;;;;;;15.50;1.70;;;20.20;72.40;19.40;98634;;;;553312;255;24166;-76
2022/09/16 10:29:03;;;;;;;5.45;1.80;;;20.00;74.00;19.20;98637;;;;557060;255;35699;-76
2022/09/16 10:31:37;;;;;;;16.03;1.60;;;19.80;75.00;19.30;98650;;;;560231;253;24155;-76
2022/09/16 10:34:07;;;;;;;38.80;4.70;;;19.80;76.20;19.60;98642;;;;552925;255;24241;-75
2022/09/16 10:36:33;;;;;;;5.50;1.37;;;20.40;74.70;20.00;98650;;;;552016;255;24208;-75
2022/09/16 10:39:01;;;;;;;3.87;1.30;;;20.40;74.70;20.00;98640;;;;552584;255;24178;-76
2022/09/16 10:41:33;;;;;;;24.33;1.93;;;20.50;73.30;19.90;98633;;;;560867;251;23158;-75
2022/09/16 10:44:00;;;;;;;8.47;1.10;;;20.50;72.80;19.80;98639;;;;552281;255;24161;-75
2022/09/16 10:46:28;;;;;;;6.95;1.20;;;20.40;72.10;19.60;98650;;;;546945;255;35613;-75
2022/09/16 10:48:59;;;;;;;22.87;2.10;;;20.20;73.80;19.30;98648;;;;552765;255;24146;-75
2022/09/16 10:51:27;;;;;;;18.23;1.30;;;19.90;75.00;19.00;98650;;;;552334;255;24162;-76
2022/09/16 10:53:59;;;;;;;10.47;1.37;;;19.50;76.20;18.80;98664;;;;560590;253;24195;-76
2022/09/16 10:56:29;;;;;;;6.93;1.07;;;19.40;76.10;18.60;98656;;;;552363;255;24151;-75
2022/09/16 10:59:09;;;;;;;16.60;1.53;;;19.30;76.40;18.50;98652;;;;552757;255;24144;-78
2022/09/16 11:02:20;;;;;;;8.20;1.33;;;19.10;77.80;18.40;98654;;;;552550;251;24137;-77
2022/09/16 11:05:03;;;;;;;64.67;4.20;;;19.00;77.50;18.40;98659;;;;552505;255;26329;-76
2022/09/16 11:07:40;;;;;;;8.73;1.10;;;18.90;77.50;18.40;98670;;;;552813;255;24219;-75
2022/09/16 11:10:30;;;;;;;15.27;2.27;;;18.90;78.60;18.20;98677;;;;560643;253;24159;-76
2022/09/16 11:13:01;;;;;;;36.87;3.83;;;18.80;78.50;18.40;98663;;;;545925;255;24156;-77
2022/09/16 11:15:31;;;;;;;49.70;4.47;;;18.90;79.70;18.40;98658;;;;546092;255;24202;-77
2022/09/16 11:18:27;;;;;;;6.37;1.00;;;18.80;79.10;18.20;98661;;;;560393;253;24163;-76
2022/09/16 11:21:28;;;;;;;16.77;1.60;;;18.80;79.10;18.00;98660;;;;552933;255;24158;-76
2022/09/16 11:24:23;;;;;;;20.63;2.50;;;18.60;80.20;17.90;98655;;;;552795;255;24194;-76
2022/09/16 11:27:12;;;;;;;9.00;1.13;;;18.50;80.50;17.80;98655;;;;562197;254;24203;-75
2022/09/16 11:29:57;;;;;;;13.37;2.30;;;18.40;80.70;17.70;98670;;;;554037;255;24147;-76
2022/09/16 11:33:01;;;;;;;7.57;1.10;;;18.30;82.30;17.40;98673;;;;553863;255;24143;-76
2022/09/16 11:35:41;;;;;;;7.33;1.17;;;18.00;87.00;16.80;98686;;;;561918;255;24152;-75
2022/09/16 11:38:24;;;;;;;6.00;1.20;;;17.50;91.50;16.40;98675;;;;553280;255;24139;-76
2022/09/16 11:40:58;;;;;;;2.13;1.43;;;17.10;93.70;16.20;98678;;;;549752;255;24179;-76
2022/09/16 11:43:57;;;;;;;4.17;0.90;;;16.90;95.60;16.30;98678;;;;553262;255;24148;-75
2022/09/16 11:47:02;;;;;;;7.87;1.57;;;16.80;95.50;16.50;98679;;;;561240;254;24143;-75
2022/09/16 11:50:05;;;;;;;5.20;1.30;;;17.10;95.30;16.60;98682;;;;561077;255;24135;-75
2022/09/16 11:53:03;;;;;;;3.07;0.90;;;17.20;95.30;16.80;98683;;;;553250;255;24150;-75
2022/09/16 11:55:49;;;;;;;3.63;1.00;;;17.30;95.50;17.00;98682;;;;553249;255;24175;-76
2022/09/16 11:58:45;;;;;;;5.57;1.30;;;17.50;95.10;17.00;98683;;;;553097;255;24143;-76
2022/09/16 12:01:43;;;;;;;6.30;1.00;;;17.60;94.70;17.20;98685;;;;561033;255;24244;-78